createdAt,value
2023-11-01T00:01:34.678Z,98980.97
2023-11-01T00:04:01.642Z,98984.59
2023-11-01T00:06:28.505Z,98981.13
2023-11-01T00:08:55.799Z,98981.97
2023-11-01T00:11:22.496Z,99000.59
2023-11-01T00:13:49.663Z,98994.78
2023-11-01T00:16:17.208Z,98997.22
2023-11-01T00:18:44.346Z,98992.53
2023-11-01T00:21:11.729Z,98992.53
2023-11-01T00:23:39.003Z,98987.38
2023-11-01T00:26:07.718Z,98998.94
2023-11-01T00:28:35.391Z,99014.56
2023-11-01T00:31:02.779Z,99018.06
2023-11-01T00:33:29.752Z,99020.97
2023-11-01T00:35:56.702Z,99028.91
2023-11-01T00:38:23.477Z,99029.66
2023-11-01T00:40:50.595Z,99037.50
2023-11-01T00:43:17.576Z,99024.06
2023-11-01T00:45:44.324Z,99041.78
2023-11-01T00:48:11.211Z,99029.63
2023-11-01T00:50:38.467Z,99039.44
2023-11-01T00:53:05.237Z,99039.19
2023-11-01T00:55:31.828Z,99037.66
2023-11-01T00:57:59.052Z,99037.72
2023-11-01T01:00:25.827Z,99034.66
2023-11-01T01:02:55.718Z,99038.63
2023-11-01T01:05:24.052Z,99023.34
2023-11-01T01:07:51.257Z,99035.59
2023-11-01T01:10:18.974Z,99040.28
2023-11-01T01:12:45.728Z,99021.00
2023-11-01T01:15:13.492Z,99038.34
2023-11-01T01:17:40.908Z,99030.16
2023-11-01T01:20:08.651Z,99033.75
2023-11-01T01:22:35.353Z,99034.53
2023-11-01T01:25:02.410Z,99048.28
2023-11-01T01:27:29.838Z,99039.56
2023-11-01T01:29:56.970Z,99034.44
2023-11-01T01:32:23.629Z,99047.47
2023-11-01T01:34:50.540Z,99042.28
2023-11-01T01:37:17.526Z,99026.09
2023-11-01T01:39:44.187Z,99042.78
2023-11-01T01:42:10.751Z,99048.31
2023-11-01T01:44:37.432Z,99048.44
2023-11-01T01:47:04.303Z,99053.19
2023-11-01T01:49:36.985Z,99053.28
2023-11-01T01:52:06.802Z,99058.81
2023-11-01T01:54:34.331Z,99066.00
2023-11-01T01:57:01.249Z,99064.44
2023-11-01T01:59:28.162Z,99058.03
2023-11-01T02:01:57.243Z,99067.38
2023-11-01T02:04:25.387Z,99065.81
2023-11-01T02:06:53.212Z,99066.34
2023-11-01T02:09:20.336Z,99059.13
2023-11-01T02:11:47.302Z,99063.69
2023-11-01T02:14:14.633Z,99064.03
2023-11-01T02:16:42.212Z,99065.75
2023-11-01T02:19:12.928Z,99064.59
2023-11-01T02:21:40.075Z,99058.97
2023-11-01T02:24:07.276Z,99072.06
2023-11-01T02:26:34.144Z,99064.22
2023-11-01T02:29:01.330Z,99068.09
2023-11-01T02:31:28.433Z,99064.91
2023-11-01T02:33:55.055Z,99069.63
2023-11-01T02:36:21.663Z,99061.34
2023-11-01T02:38:48.326Z,99057.63
2023-11-01T02:41:15.721Z,99066.75
2023-11-01T02:43:42.682Z,99069.50
2023-11-01T02:46:09.848Z,99058.59
2023-11-01T02:48:37.117Z,99074.38
2023-11-01T02:51:03.972Z,99053.63
2023-11-01T02:53:31.591Z,99077.75
2023-11-01T02:55:59.398Z,99072.16
2023-11-01T02:58:26.234Z,99064.63
2023-11-01T03:00:52.933Z,99064.94
2023-11-01T03:03:19.873Z,99055.31
2023-11-01T03:05:46.557Z,99071.47
2023-11-01T03:08:13.256Z,99070.97
2023-11-01T03:10:40.179Z,99081.50
2023-11-01T03:13:07.531Z,99080.41
2023-11-01T03:15:34.247Z,99067.56
2023-11-01T03:18:01.722Z,99092.94
2023-11-01T03:20:29.475Z,99087.38
2023-11-01T03:22:56.205Z,99099.06
2023-11-01T03:25:23.086Z,99092.59
2023-11-01T03:27:52.495Z,99086.97
2023-11-01T03:30:19.398Z,99084.53
2023-11-01T03:32:46.125Z,99090.03
2023-11-01T03:35:13.641Z,99096.38
2023-11-01T03:37:40.942Z,99101.59
2023-11-01T03:40:09.149Z,99090.03
2023-11-01T03:42:35.909Z,99104.50
2023-11-01T03:45:02.520Z,99111.16
2023-11-01T03:47:29.328Z,99119.06
2023-11-01T03:49:55.927Z,99108.78
2023-11-01T03:52:22.564Z,99117.03
2023-11-01T03:54:49.176Z,99103.50
2023-11-01T03:57:15.819Z,99114.63
2023-11-01T03:59:42.524Z,99126.22
2023-11-01T04:02:10.043Z,99120.72
2023-11-01T04:04:36.631Z,99111.59
2023-11-01T04:07:04.194Z,99107.00
2023-11-01T04:09:31.714Z,99110.63
2023-11-01T04:11:58.572Z,99109.91
2023-11-01T04:14:25.365Z,99113.31
2023-11-01T04:16:53.145Z,99103.25
2023-11-01T04:19:20.724Z,99106.06
2023-11-01T04:21:47.408Z,99100.59
2023-11-01T04:24:14.980Z,99095.75
2023-11-01T04:26:41.630Z,99099.50
2023-11-01T04:29:08.319Z,99097.19
2023-11-01T04:31:34.964Z,99099.50
2023-11-01T04:34:01.550Z,99102.81
2023-11-01T04:36:28.242Z,99107.50
2023-11-01T04:38:56.382Z,99101.53
2023-11-01T04:41:28.959Z,99103.94
2023-11-01T04:43:56.407Z,99099.81
2023-11-01T04:46:23.107Z,99097.88
2023-11-01T04:48:51.334Z,99102.47
2023-11-01T04:51:18.354Z,99103.50
2023-11-01T04:53:45.642Z,99092.09
2023-11-01T04:56:12.365Z,99086.09
2023-11-01T04:58:39.269Z,99082.78
2023-11-01T05:01:07.363Z,99088.91
2023-11-01T05:03:38.589Z,99081.81
2023-11-01T05:06:06.939Z,99073.56
2023-11-01T05:08:33.895Z,99081.72
2023-11-01T05:11:00.721Z,99073.97
2023-11-01T05:13:27.372Z,99072.84
2023-11-01T05:15:54.227Z,99077.84
2023-11-01T05:18:21.161Z,99066.19
2023-11-01T05:20:48.065Z,99066.19
2023-11-01T05:23:15.045Z,99056.69
2023-11-01T05:25:41.835Z,99053.50
2023-11-01T05:28:08.616Z,99053.94
2023-11-01T05:30:35.381Z,99058.19
2023-11-01T05:33:02.107Z,99059.63
2023-11-01T05:35:28.791Z,99063.44
2023-11-01T05:37:55.451Z,99051.81
2023-11-01T05:40:22.147Z,99054.78
2023-11-01T05:42:49.067Z,99057.16
2023-11-01T05:45:21.456Z,99058.09
2023-11-01T05:47:53.419Z,99050.47
2023-11-01T05:50:26.183Z,99035.41
2023-11-01T05:52:54.902Z,99056.44
2023-11-01T05:55:26.562Z,99066.28
2023-11-01T05:58:01.302Z,99066.84
2023-11-01T06:00:28.227Z,99072.34
2023-11-01T06:02:55.034Z,99075.50
2023-11-01T06:05:23.935Z,99087.44
2023-11-01T06:07:51.579Z,99070.31
2023-11-01T06:10:19.176Z,99066.19
2023-11-01T06:12:45.808Z,99068.56
2023-11-01T06:15:12.930Z,99073.53
2023-11-01T06:17:40.209Z,99070.75
2023-11-01T06:20:07.572Z,99067.19
2023-11-01T06:22:34.698Z,99077.66
2023-11-01T06:25:04.258Z,99080.91
2023-11-01T06:27:31.023Z,99093.69
2023-11-01T06:29:57.740Z,99096.00
2023-11-01T06:32:24.379Z,99094.56
2023-11-01T06:34:51.061Z,99093.84
2023-11-01T06:37:17.709Z,99098.16
2023-11-01T06:39:44.325Z,99106.53
2023-11-01T06:42:11.031Z,99080.59
2023-11-01T06:44:37.738Z,99088.84
2023-11-01T06:47:04.522Z,99082.19
2023-11-01T06:49:32.416Z,99085.09
2023-11-01T06:51:59.408Z,99079.31
2023-11-01T06:54:25.996Z,99080.97
2023-11-01T06:56:52.845Z,99077.41
2023-11-01T06:59:19.562Z,99076.47
2023-11-01T07:01:46.422Z,99081.34
2023-11-01T07:04:13.130Z,99085.53
2023-11-01T07:06:39.811Z,99088.91
2023-11-01T07:09:09.199Z,99092.22
2023-11-01T07:11:36.721Z,99089.53
2023-11-01T07:14:03.515Z,99079.72
2023-11-01T07:16:30.091Z,99076.56
2023-11-01T07:18:59.184Z,99076.63
2023-11-01T07:21:26.155Z,99070.03
2023-11-01T07:23:52.866Z,99071.34
2023-11-01T07:26:19.840Z,99067.38
2023-11-01T07:28:46.518Z,99069.50
2023-11-01T07:31:14.762Z,99072.03
2023-11-01T07:33:43.661Z,99077.72
2023-11-01T07:36:11.190Z,99077.41
2023-11-01T07:38:39.425Z,99076.69
2023-11-01T07:41:11.960Z,99085.38
2023-11-01T07:43:41.996Z,99078.28
2023-11-01T07:46:09.528Z,99088.50
2023-11-01T07:48:37.316Z,99094.81
2023-11-01T07:51:08.380Z,99092.03
2023-11-01T07:53:38.556Z,99092.03
2023-11-01T07:56:05.690Z,99092.91
2023-11-01T07:58:32.745Z,99085.09
2023-11-01T08:01:00.276Z,99087.13
2023-11-01T08:03:27.352Z,99097.41
2023-11-01T08:05:54.395Z,99090.69
2023-11-01T08:08:21.229Z,99098.22
2023-11-01T08:10:47.883Z,99106.59
2023-11-01T08:13:16.440Z,99102.22
2023-11-01T08:15:43.525Z,99103.03
2023-11-01T08:18:11.475Z,99101.78
2023-11-01T08:20:39.355Z,99101.72
2023-11-01T08:23:06.896Z,99104.03
2023-11-01T08:25:34.410Z,99107.63
2023-11-01T08:28:01.884Z,99108.78
2023-11-01T08:30:28.546Z,99104.09
2023-11-01T08:32:55.865Z,99106.13
2023-11-01T08:35:22.496Z,99109.34
2023-11-01T08:37:49.114Z,99119.59
2023-11-01T08:40:15.785Z,99122.38
2023-11-01T08:42:42.432Z,99123.13
2023-11-01T08:45:09.548Z,99126.28
2023-11-01T08:47:40.620Z,99122.66
2023-11-01T08:50:11.564Z,99119.38
2023-11-01T08:52:38.470Z,99123.25
2023-11-01T08:55:05.412Z,99111.25
2023-11-01T08:57:32.109Z,99112.72
2023-11-01T08:59:59.420Z,99118.34
2023-11-01T09:02:30.254Z,99116.00
2023-11-01T09:04:57.747Z,99113.84
2023-11-01T09:07:24.578Z,99105.47
2023-11-01T09:09:52.025Z,99107.47
2023-11-01T09:12:18.934Z,99104.28
2023-11-01T09:14:47.290Z,99101.56
2023-11-01T09:17:14.973Z,99099.91
2023-11-01T09:19:42.252Z,99097.91
2023-11-01T09:22:09.532Z,99090.91
2023-11-01T09:24:36.765Z,99097.53
2023-11-01T09:27:04.280Z,99096.63
2023-11-01T09:29:30.983Z,99099.03
2023-11-01T09:31:57.635Z,99096.47
2023-11-01T09:34:24.666Z,99086.72
2023-11-01T09:36:52.863Z,99090.03
2023-11-01T09:39:19.753Z,99086.16
2023-11-01T09:41:55.204Z,99081.47
2023-11-01T09:44:21.934Z,99081.78
2023-11-01T09:46:49.259Z,99069.47
2023-11-01T09:49:19.423Z,99072.16
2023-11-01T09:51:46.094Z,99071.25
2023-11-01T09:54:14.878Z,99064.94
2023-11-01T09:56:48.122Z,99050.97
2023-11-01T09:59:14.935Z,99055.34
2023-11-01T10:01:42.122Z,99045.56
2023-11-01T10:04:09.847Z,99046.03
2023-11-01T10:06:37.926Z,99043.91
2023-11-01T10:09:08.478Z,99039.16
2023-11-01T10:11:35.944Z,99037.28
2023-11-01T10:14:02.670Z,99028.06
2023-11-01T10:16:29.554Z,99031.25
2023-11-01T10:18:56.568Z,99026.09
2023-11-01T10:21:28.834Z,99017.44
2023-11-01T10:23:58.428Z,99022.94
2023-11-01T10:26:29.766Z,99018.84
2023-11-01T10:28:58.343Z,99016.41
2023-11-01T10:31:25.768Z,99014.34
2023-11-01T10:33:53.244Z,99002.81
2023-11-01T10:36:21.479Z,99006.34
2023-11-01T10:38:52.303Z,99006.13
2023-11-01T10:41:19.728Z,99004.59
2023-11-01T10:43:48.110Z,98990.91
2023-11-01T10:46:15.953Z,98991.88
2023-11-01T10:48:44.648Z,98988.06
2023-11-01T10:51:13.075Z,98982.91
2023-11-01T10:53:40.949Z,98978.78
2023-11-01T10:56:08.329Z,98975.69
2023-11-01T10:58:39.408Z,98969.47
2023-11-01T11:01:21.996Z,98963.81
2023-11-01T11:04:01.256Z,98964.56
2023-11-01T11:06:45.425Z,98959.41
2023-11-01T11:09:20.602Z,98957.88
2023-11-01T11:12:16.115Z,98957.56
2023-11-01T11:14:47.254Z,98956.28
2023-11-01T11:17:21.411Z,98955.31
2023-11-01T11:20:06.339Z,98946.78
2023-11-01T11:22:54.569Z,98946.03
2023-11-01T11:25:39.282Z,98939.53
2023-11-01T11:28:06.899Z,98938.03
2023-11-01T11:30:45.758Z,98934.47
2023-11-01T11:33:13.408Z,98924.53
2023-11-01T11:35:40.264Z,98914.59
2023-11-01T11:38:34.885Z,98916.19
2023-11-01T11:41:44.018Z,98918.28
2023-11-01T11:44:15.084Z,98908.88
2023-11-01T11:46:50.268Z,98905.84
2023-11-01T11:49:21.614Z,98907.06
2023-11-01T11:51:52.643Z,98900.25
2023-11-01T11:54:20.565Z,98886.28
2023-11-01T11:56:48.427Z,98885.03
2023-11-01T11:59:25.967Z,98877.03
2023-11-01T12:01:54.787Z,98870.03
2023-11-01T12:04:21.900Z,98868.22
2023-11-01T12:06:51.418Z,98864.06
2023-11-01T12:09:20.084Z,98858.94
2023-11-01T12:11:54.452Z,98859.25
2023-11-01T12:14:26.420Z,98851.88
2023-11-01T12:16:55.119Z,98847.56
2023-11-01T12:19:23.459Z,98841.69
2023-11-01T12:21:56.854Z,98841.94
2023-11-01T12:24:43.313Z,98838.50
2023-11-01T12:27:21.344Z,98833.50
2023-11-01T12:29:52.602Z,98830.88
2023-11-01T12:32:20.419Z,98825.56
2023-11-01T12:34:47.104Z,98814.81
2023-11-01T12:37:20.210Z,98815.91
2023-11-01T12:40:28.114Z,98816.94
2023-11-01T12:43:09.477Z,98813.44
2023-11-01T12:45:36.141Z,98809.22
2023-11-01T12:48:02.857Z,98801.72
2023-11-01T12:50:31.865Z,98793.53
2023-11-01T12:52:58.648Z,98798.97
2023-11-01T12:55:26.917Z,98792.81
2023-11-01T12:58:00.472Z,98786.81
2023-11-01T13:00:31.999Z,98780.72
2023-11-01T13:03:00.121Z,98774.59
2023-11-01T13:05:26.918Z,98774.25
2023-11-01T13:07:56.791Z,98771.13
2023-11-01T13:10:23.845Z,98775.75
2023-11-01T13:12:50.660Z,98774.25
2023-11-01T13:15:17.963Z,98769.38
2023-11-01T13:17:45.353Z,98757.63
2023-11-01T13:20:12.361Z,98754.81
2023-11-01T13:22:38.942Z,98755.13
2023-11-01T13:25:06.203Z,98748.91
2023-11-01T13:27:32.824Z,98747.56
2023-11-01T13:29:59.686Z,98746.31
2023-11-01T13:32:26.915Z,98741.13
2023-11-01T13:34:53.606Z,98740.91
2023-11-01T13:37:20.704Z,98730.78
2023-11-01T13:39:47.431Z,98734.44
2023-11-01T13:42:16.671Z,98730.44
2023-11-01T13:44:44.536Z,98724.31
2023-11-01T13:47:12.126Z,98724.06
2023-11-01T13:49:41.060Z,98721.69
2023-11-01T13:52:08.447Z,98723.78
2023-11-01T13:54:35.138Z,98717.50
2023-11-01T13:57:04.170Z,98713.69
2023-11-01T13:59:31.177Z,98714.53
2023-11-01T14:01:57.998Z,98716.94
2023-11-01T14:04:24.877Z,98707.06
2023-11-01T14:06:52.187Z,98700.56
2023-11-01T14:09:18.933Z,98701.44
2023-11-01T14:11:52.808Z,98698.88
2023-11-01T14:14:21.119Z,98699.66
2023-11-01T14:16:47.771Z,98688.19
2023-11-01T14:19:14.376Z,98695.13
2023-11-01T14:21:41.210Z,98698.34
2023-11-01T14:24:08.619Z,98692.25
2023-11-01T14:26:35.299Z,98690.88
2023-11-01T14:29:01.904Z,98693.38
2023-11-01T14:31:29.277Z,98680.41
2023-11-01T14:33:55.934Z,98682.56
2023-11-01T14:36:22.712Z,98681.91
2023-11-01T14:38:49.657Z,98673.72
2023-11-01T14:41:16.290Z,98676.66
2023-11-01T14:43:43.299Z,98671.34
2023-11-01T14:46:10.088Z,98669.94
2023-11-01T14:48:36.979Z,98676.41
2023-11-01T14:51:06.567Z,98671.66
2023-11-01T14:53:33.505Z,98673.31
2023-11-01T14:56:00.230Z,98671.00
2023-11-01T14:58:26.904Z,98670.22
2023-11-01T15:00:53.555Z,98660.81
2023-11-01T15:03:20.333Z,98671.94
2023-11-01T15:05:47.047Z,98666.44
2023-11-01T15:08:13.723Z,98661.75
2023-11-01T15:10:40.301Z,98662.97
2023-11-01T15:13:08.648Z,98651.53
2023-11-01T15:15:35.407Z,98657.81
2023-11-01T15:18:02.043Z,98657.81
2023-11-01T15:20:28.691Z,98655.41
2023-11-01T15:22:55.497Z,98638.47
2023-11-01T15:25:22.123Z,98655.44
2023-11-01T15:27:49.998Z,98638.47
2023-11-01T15:30:19.902Z,98624.66
2023-11-01T15:32:46.722Z,98638.06
2023-11-01T15:35:13.398Z,98628.59
2023-11-01T15:37:40.053Z,98626.25
2023-11-01T15:40:07.516Z,98625.06
2023-11-01T15:42:34.169Z,98611.22
2023-11-01T15:45:01.192Z,98614.03
2023-11-01T15:47:27.910Z,98608.88
2023-11-01T15:49:54.604Z,98598.22
2023-11-01T15:52:21.258Z,98598.22
2023-11-01T15:54:51.937Z,98597.84
2023-11-01T15:57:21.214Z,98597.84
2023-11-01T15:59:48.946Z,98592.31
2023-11-01T16:02:15.678Z,98594.66
2023-11-01T16:04:42.482Z,98587.56
2023-11-01T16:07:09.191Z,98586.75
2023-11-01T16:09:35.834Z,98584.34
2023-11-01T16:12:02.547Z,98587.44
2023-11-01T16:14:30.350Z,98574.41
2023-11-01T16:16:57.392Z,98584.97
2023-11-01T16:19:24.563Z,98573.03
2023-11-01T16:21:51.229Z,98576.44
2023-11-01T16:24:17.861Z,98578.34
2023-11-01T16:26:46.072Z,98573.16
2023-11-01T16:29:12.697Z,98575.09
2023-11-01T16:31:39.349Z,98568.00
2023-11-01T16:34:06.135Z,98571.94
2023-11-01T16:36:33.120Z,98564.03
2023-11-01T16:38:59.944Z,98562.81
2023-11-01T16:41:27.358Z,98569.94
2023-11-01T16:43:53.973Z,98565.94
2023-11-01T16:46:20.645Z,98563.16
2023-11-01T16:48:47.480Z,98558.75
2023-11-01T16:51:14.463Z,98553.94
2023-11-01T16:53:41.244Z,98559.41
2023-11-01T16:56:08.378Z,98548.84
2023-11-01T16:58:36.872Z,98546.44
2023-11-01T17:01:04.188Z,98552.75
2023-11-01T17:03:31.303Z,98541.75
2023-11-01T17:05:58.054Z,98550.84
2023-11-01T17:08:24.706Z,98548.91
2023-11-01T17:10:51.295Z,98545.00
2023-11-01T17:13:17.930Z,98540.25
2023-11-01T17:15:45.611Z,98550.84
2023-11-01T17:18:12.406Z,98534.34
2023-11-01T17:20:40.381Z,98536.28
2023-11-01T17:23:09.515Z,98535.88
2023-11-01T17:25:49.513Z,98527.63
2023-11-01T17:28:25.347Z,98531.19
2023-11-01T17:30:53.749Z,98529.94
2023-11-01T17:33:30.538Z,98522.78
2023-11-01T17:35:57.383Z,98525.88
2023-11-01T17:38:41.689Z,98527.44
2023-11-01T17:41:10.281Z,98530.50
2023-11-01T17:43:54.731Z,98525.75
2023-11-01T17:46:24.849Z,98527.28
2023-11-01T17:48:55.521Z,98517.09
2023-11-01T17:51:22.770Z,98514.28
2023-11-01T17:53:49.661Z,98506.03
2023-11-01T17:56:19.170Z,98514.63
2023-11-01T17:58:56.019Z,98514.59
2023-11-01T18:01:26.376Z,98506.72
2023-11-01T18:03:53.588Z,98509.19
2023-11-01T18:06:22.493Z,98502.84
2023-11-01T18:08:49.282Z,98492.13
2023-11-01T18:11:22.190Z,98497.97
2023-11-01T18:13:48.881Z,98490.88
2023-11-01T18:16:25.177Z,98477.53
2023-11-01T18:18:56.144Z,98481.59
2023-11-01T18:21:28.932Z,98479.97
2023-11-01T18:24:28.936Z,98472.38
2023-11-01T18:26:55.693Z,98472.72
2023-11-01T18:29:23.131Z,98465.66
2023-11-01T18:31:50.021Z,98471.09
2023-11-01T18:34:17.723Z,98467.16
2023-11-01T18:36:48.361Z,98467.09
2023-11-01T18:39:24.941Z,98474.88
2023-11-01T18:41:52.033Z,98472.50
2023-11-01T18:44:29.252Z,98474.53
2023-11-01T18:46:57.487Z,98469.44
2023-11-01T18:49:58.664Z,98460.03
2023-11-01T18:52:26.815Z,98458.91
2023-11-01T18:54:53.775Z,98460.56
2023-11-01T18:57:30.620Z,98461.69
2023-11-01T18:59:58.208Z,98456.63
2023-11-01T19:02:34.240Z,98453.94
2023-11-01T19:05:22.473Z,98456.31
2023-11-01T19:07:49.293Z,98447.72
2023-11-01T19:10:21.131Z,98445.38
2023-11-01T19:12:50.048Z,98452.88
2023-11-01T19:15:38.387Z,98446.19
2023-11-01T19:18:14.277Z,98434.44
2023-11-01T19:20:42.780Z,98438.03
2023-11-01T19:23:09.446Z,98439.25
2023-11-01T19:25:36.145Z,98433.72
2023-11-01T19:28:04.598Z,98436.06
2023-11-01T19:30:31.483Z,98435.25
2023-11-01T19:32:58.266Z,98426.94
2023-11-01T19:35:24.993Z,98432.03
2023-11-01T19:37:51.636Z,98427.28
2023-11-01T19:40:21.174Z,98426.88
2023-11-01T19:42:47.779Z,98428.09
2023-11-01T19:45:14.460Z,98435.94
2023-11-01T19:47:42.088Z,98431.22
2023-11-01T19:50:13.585Z,98408.09
2023-11-01T19:52:40.220Z,98420.28
2023-11-01T19:55:07.723Z,98404.88
2023-11-01T19:57:34.407Z,98413.88
2023-11-01T20:00:01.122Z,98398.16
2023-11-01T20:02:27.924Z,98398.59
2023-11-01T20:04:55.158Z,98396.59
2023-11-01T20:07:21.914Z,98388.00
2023-11-01T20:09:48.656Z,98387.72
2023-11-01T20:12:15.276Z,98383.41
2023-11-01T20:14:42.137Z,98391.28
2023-11-01T20:17:12.176Z,98395.66
2023-11-01T20:19:38.851Z,98384.31
2023-11-01T20:22:07.640Z,98376.13
2023-11-01T20:24:34.336Z,98378.00
2023-11-01T20:27:00.983Z,98384.59
2023-11-01T20:29:27.845Z,98373.97
2023-11-01T20:31:54.560Z,98365.34
2023-11-01T20:34:21.720Z,98366.50
2023-11-01T20:36:48.416Z,98373.53
2023-11-01T20:39:15.138Z,98366.81
2023-11-01T20:41:41.860Z,98361.34
2023-11-01T20:44:08.616Z,98357.44
2023-11-01T20:46:35.388Z,98355.09
2023-11-01T20:49:02.176Z,98355.84
2023-11-01T20:51:29.853Z,98347.19
2023-11-01T20:53:59.340Z,98355.81
2023-11-01T20:56:26.001Z,98345.91
2023-11-01T20:58:53.027Z,98334.50
2023-11-01T21:01:19.820Z,98333.72
2023-11-01T21:03:46.916Z,98327.03
2023-11-01T21:06:13.580Z,98329.78
2023-11-01T21:08:40.173Z,98319.56
2023-11-01T21:11:06.782Z,98315.63
2023-11-01T21:13:33.358Z,98314.03
2023-11-01T21:16:00.855Z,98323.84
2023-11-01T21:18:27.928Z,98311.66
2023-11-01T21:20:55.162Z,98320.25
2023-11-01T21:23:21.819Z,98313.94
2023-11-01T21:25:48.399Z,98313.16
2023-11-01T21:28:15.596Z,98313.94
2023-11-01T21:30:42.601Z,98317.06
2023-11-01T21:33:09.621Z,98311.97
2023-11-01T21:35:38.062Z,98311.56
2023-11-01T21:38:08.391Z,98309.19
2023-11-01T21:40:35.574Z,98305.25
2023-11-01T21:43:02.265Z,98302.94
2023-11-01T21:45:51.118Z,98284.47
2023-11-01T21:48:25.980Z,98294.38
2023-11-01T21:51:00.925Z,98283.41
2023-11-01T21:53:33.966Z,98293.59
2023-11-01T21:56:01.269Z,98292.50
2023-11-01T21:58:28.883Z,98292.09
2023-11-01T22:01:05.271Z,98281.47
2023-11-01T22:03:35.279Z,98288.09
2023-11-01T22:06:02.208Z,98277.53
2023-11-01T22:09:08.400Z,98279.47
2023-11-01T22:11:37.600Z,98272.41
2023-11-01T22:14:08.484Z,98277.13
2023-11-01T22:16:36.243Z,98278.34
2023-11-01T22:19:14.070Z,98280.69
2023-11-01T22:21:40.689Z,98270.88
2023-11-01T22:24:07.877Z,98274.41
2023-11-01T22:26:34.556Z,98275.59
2023-11-01T22:29:05.642Z,98275.59
2023-11-01T22:31:52.685Z,98265.81
2023-11-01T22:34:22.465Z,98264.66
2023-11-01T22:36:51.366Z,98262.28
2023-11-01T22:39:38.349Z,98257.19
2023-11-01T22:42:05.478Z,98256.00
2023-11-01T22:44:32.135Z,98245.81
2023-11-01T22:46:58.814Z,98245.00
2023-11-01T22:49:25.416Z,98241.06
2023-11-01T22:51:52.041Z,98244.22
2023-11-01T22:54:18.782Z,98242.25
2023-11-01T22:56:45.511Z,98231.25
2023-11-01T22:59:12.132Z,98228.50
2023-11-01T23:01:39.080Z,98219.88
2023-11-01T23:04:05.795Z,98230.50
2023-11-01T23:06:32.481Z,98225.03
2023-11-01T23:08:59.052Z,98221.50
2023-11-01T23:11:25.708Z,98212.41
2023-11-01T23:13:52.322Z,98215.94
2023-11-01T23:16:18.938Z,98214.41
2023-11-01T23:18:45.761Z,98208.13
2023-11-01T23:21:12.438Z,98210.50
2023-11-01T23:23:39.045Z,98205.78
2023-11-01T23:26:06.364Z,98198.31
2023-11-01T23:28:40.443Z,98201.03
2023-11-01T23:31:07.172Z,98192.34
2023-11-01T23:33:37.636Z,98210.03
2023-11-01T23:36:11.631Z,98196.66
2023-11-01T23:38:45.362Z,98199.00
2023-11-01T23:41:52.149Z,98195.44
2023-11-01T23:44:19.984Z,98199.38
2023-11-01T23:46:46.702Z,98197.78
2023-11-01T23:49:40.250Z,98190.75
2023-11-01T23:52:08.386Z,98193.91
2023-11-01T23:54:35.220Z,98190.34
2023-11-01T23:57:03.196Z,98187.56
2023-11-01T23:59:31.309Z,98184.81
